Terminal Aerodrome Forecast
Issued by NWS

Home | Current Version | Previous Version | Graphics & Text | Print | Product List | Glossary On
Versions: 1 2 3 4 5 6 7 8 9 10 11 12 13 14
216
FTUS43 KBIS 161124
TAFJMS
TAF
KJMS 161124Z 1612/1712 20010KT P6SM SKC WS020/23035KT
     FM161600 23016G24KT P6SM SKC
     FM162000 26017G25KT P6SM FEW250
     FM170100 23005KT P6SM SKC=

USA.gov is the U.S. government's official web portal to all federal, state and local government web resources and services.